Time;durP1;ratioP1;P1;durP2;ratioP2;P2;SDS_P1;SDS_P2;PMS_P1;PMS_P2;Temp;Humidity;BMP_temperature;BMP_pressure;BME280_temperature;BME280_humidity;BME280_pressure;Samples;Min_cycle;Max_cycle;Signal;HPM_P1;HPM_P2
2021/11/19 00:00:02;;;;;;;15.93;12.48;;;;;;;;;;5072082;28;20854;-82
2021/11/19 00:02:30;;;;;;;13.13;9.43;;;;;;;;;;5056961;28;20205;-80
2021/11/19 00:04:58;;;;;;;21.17;13.45;;;;;;;;;;5062272;28;20191;-80
2021/11/19 00:07:25;;;;;;;17.40;10.50;;;;;;;;;;5077696;28;20194;-81
2021/11/19 00:09:54;;;;;;;15.68;11.60;;;;;;;;;;5070185;28;20678;-79
2021/11/19 00:12:21;;;;;;;19.92;13.05;;;;;;;;;;5065685;28;20194;-80
2021/11/19 00:14:48;;;;;;;15.73;11.38;;;;;;;;;;5073254;28;20565;-80
2021/11/19 00:17:15;;;;;;;18.90;10.68;;;;;;;;;;5069178;28;20194;-80
2021/11/19 00:19:43;;;;;;;18.63;12.23;;;;;;;;;;5066128;28;20601;-80
2021/11/19 00:22:11;;;;;;;21.40;12.73;;;;;;;;;;5073449;28;20220;-79
2021/11/19 00:24:39;;;;;;;22.30;15.32;;;;;;;;;;5067285;28;20217;-78
2021/11/19 00:27:10;;;;;;;20.88;12.90;;;;;;;;;;5068501;28;20217;-80
2021/11/19 00:29:37;;;;;;;19.90;13.10;;;;;;;;;;5083674;28;20255;-82
2021/11/19 00:32:04;;;;;;;20.40;13.20;;;;;;;;;;5075538;28;20545;-77
2021/11/19 00:34:31;;;;;;;23.88;15.35;;;;;;;;;;5061727;28;20225;-81
2021/11/19 00:37:00;;;;;;;23.67;12.57;;;;;;;;;;5073122;28;20213;-80
2021/11/19 00:39:27;;;;;;;16.58;12.60;;;;;;;;;;5068802;28;20259;-79
2021/11/19 00:41:55;;;;;;;24.80;13.60;;;;;;;;;;5060379;28;22019;-79
2021/11/19 00:44:24;;;;;;;23.08;13.27;;;;;;;;;;5087855;28;20191;-79
2021/11/19 00:46:52;;;;;;;21.33;14.00;;;;;;;;;;5086064;28;20202;-80
2021/11/19 00:49:21;;;;;;;22.75;12.88;;;;;;;;;;5076931;28;20211;-79
2021/11/19 00:51:49;;;;;;;25.52;12.98;;;;;;;;;;5083632;28;20198;-78
2021/11/19 00:54:17;;;;;;;25.67;14.07;;;;;;;;;;5066447;28;20483;-78
2021/11/19 00:56:47;;;;;;;22.75;14.93;;;;;;;;;;5068606;28;20684;-78
2021/11/19 00:59:15;;;;;;;26.73;17.15;;;;;;;;;;5064678;28;20776;-78
2021/11/19 01:01:45;;;;;;;24.98;15.80;;;;;;;;;;5070364;28;20666;-78
2021/11/19 01:04:13;;;;;;;21.77;15.68;;;;;;;;;;5065476;28;20199;-78
2021/11/19 01:06:40;;;;;;;22.38;14.60;;;;;;;;;;5063603;28;20201;-78
2021/11/19 01:09:09;;;;;;;23.42;15.98;;;;;;;;;;5058502;28;20636;-78
2021/11/19 01:11:36;;;;;;;30.67;16.88;;;;;;;;;;5059259;28;20202;-78
2021/11/19 01:14:05;;;;;;;26.23;17.30;;;;;;;;;;5072395;28;20217;-78
2021/11/19 01:16:33;;;;;;;18.95;15.85;;;;;;;;;;5060354;28;20659;-78
2021/11/19 01:19:04;;;;;;;20.67;15.30;;;;;;;;;;5054076;28;20210;-78
2021/11/19 01:21:33;;;;;;;22.30;15.05;;;;;;;;;;5057376;28;20507;-78
2021/11/19 01:24:00;;;;;;;21.40;15.73;;;;;;;;;;5070958;28;20195;-77
2021/11/19 01:26:29;;;;;;;28.92;17.95;;;;;;;;;;5055946;28;20195;-77
2021/11/19 01:28:58;;;;;;;18.88;16.33;;;;;;;;;;5069804;28;20290;-78
2021/11/19 01:31:27;;;;;;;21.15;14.60;;;;;;;;;;5061268;28;20206;-78
2021/11/19 01:33:54;;;;;;;27.55;17.40;;;;;;;;;;5065261;28;20207;-78
2021/11/19 01:36:23;;;;;;;18.92;15.25;;;;;;;;;;5064837;28;20664;-78
2021/11/19 01:38:51;;;;;;;24.63;17.13;;;;;;;;;;5068728;28;20251;-79
2021/11/19 01:41:19;;;;;;;29.65;19.13;;;;;;;;;;5055237;28;20218;-78
2021/11/19 01:43:47;;;;;;;24.83;16.00;;;;;;;;;;5063712;28;20197;-79
2021/11/19 01:46:16;;;;;;;24.52;17.42;;;;;;;;;;5074382;28;20194;-78
2021/11/19 01:48:44;;;;;;;27.13;19.65;;;;;;;;;;5067913;28;20218;-78
2021/11/19 01:51:25;;;;;;;22.77;18.00;;;;;;;;;;5067737;28;20206;-79
2021/11/19 01:53:56;;;;;;;24.58;16.08;;;;;;;;;;5073957;28;20217;-80
2021/11/19 01:56:25;;;;;;;22.58;16.95;;;;;;;;;;5074450;28;20198;-79
2021/11/19 01:58:55;;;;;;;20.65;15.57;;;;;;;;;;5081809;28;20202;-79
2021/11/19 02:01:24;;;;;;;20.30;15.27;;;;;;;;;;5061469;28;20203;-78
2021/11/19 02:03:53;;;;;;;25.73;17.35;;;;;;;;;;5065114;28;20202;-79
2021/11/19 02:06:22;;;;;;;23.00;17.52;;;;;;;;;;5063867;28;20327;-78
2021/11/19 02:08:49;;;;;;;23.27;15.20;;;;;;;;;;5064439;28;20210;-78
2021/11/19 02:11:25;;;;;;;21.60;15.65;;;;;;;;;;5053130;28;20190;-78
2021/11/19 02:13:55;;;;;;;21.42;19.13;;;;;;;;;;5066320;28;20684;-79
2021/11/19 02:16:23;;;;;;;20.83;16.63;;;;;;;;;;5058461;28;20194;-78
2021/11/19 02:18:55;;;;;;;22.13;18.45;;;;;;;;;;5063778;28;20202;-78
2021/11/19 02:21:24;;;;;;;23.83;18.20;;;;;;;;;;5051853;28;20199;-79
2021/11/19 02:23:52;;;;;;;28.83;21.77;;;;;;;;;;5062372;28;20210;-79
2021/11/19 02:26:22;;;;;;;25.02;19.17;;;;;;;;;;5058149;28;20193;-79
2021/11/19 02:28:52;;;;;;;20.30;17.10;;;;;;;;;;5055724;28;20202;-79
2021/11/19 02:31:21;;;;;;;27.30;18.63;;;;;;;;;;5068222;28;20214;-80
2021/11/19 02:33:49;;;;;;;26.60;20.00;;;;;;;;;;5064922;28;20554;-80
2021/11/19 02:36:17;;;;;;;23.15;18.02;;;;;;;;;;5070000;28;20561;-80
2021/11/19 02:38:46;;;;;;;22.60;17.42;;;;;;;;;;5058019;28;20202;-79
2021/11/19 02:41:14;;;;;;;24.10;21.00;;;;;;;;;;5067793;28;20198;-80
2021/11/19 02:43:45;;;;;;;30.10;21.42;;;;;;;;;;5062262;28;20206;-80
2021/11/19 02:46:16;;;;;;;26.55;21.23;;;;;;;;;;5057204;28;20248;-81
2021/11/19 02:48:43;;;;;;;24.60;19.48;;;;;;;;;;5063255;28;20209;-80
2021/11/19 02:51:10;;;;;;;24.30;19.77;;;;;;;;;;5072252;28;20198;-80
2021/11/19 02:53:37;;;;;;;24.35;19.70;;;;;;;;;;5068147;28;20198;-80
2021/11/19 02:56:05;;;;;;;24.23;19.50;;;;;;;;;;5056247;28;20194;-80
2021/11/19 02:58:33;;;;;;;23.80;20.15;;;;;;;;;;5060345;28;20650;-80
2021/11/19 03:01:09;;;;;;;22.40;17.40;;;;;;;;;;5061615;28;20220;-80
2021/11/19 03:03:37;;;;;;;22.27;18.00;;;;;;;;;;5065823;28;20198;-80
2021/11/19 03:06:06;;;;;;;25.45;19.63;;;;;;;;;;5059806;28;20199;-81
2021/11/19 03:08:33;;;;;;;19.98;17.70;;;;;;;;;;5058225;28;20661;-81
2021/11/19 03:11:00;;;;;;;21.30;18.08;;;;;;;;;;5070521;28;20252;-81
2021/11/19 03:13:29;;;;;;;23.42;18.63;;;;;;;;;;5066263;28;20186;-81
2021/11/19 03:15:57;;;;;;;24.52;17.95;;;;;;;;;;5071476;28;20229;-81
2021/11/19 03:18:27;;;;;;;21.25;16.90;;;;;;;;;;5064302;28;20199;-80
2021/11/19 03:20:55;;;;;;;18.90;15.68;;;;;;;;;;5052000;28;20202;-80
2021/11/19 03:23:22;;;;;;;24.48;17.70;;;;;;;;;;5060765;28;20220;-79
2021/11/19 03:25:49;;;;;;;20.67;16.52;;;;;;;;;;5055130;28;20203;-81
2021/11/19 03:28:18;;;;;;;23.85;18.10;;;;;;;;;;5052056;28;20209;-80
2021/11/19 03:30:47;;;;;;;18.83;15.75;;;;;;;;;;5064174;28;20194;-80
2021/11/19 03:33:17;;;;;;;26.77;17.85;;;;;;;;;;5056988;28;20198;-77
2021/11/19 03:35:46;;;;;;;23.20;17.08;;;;;;;;;;5061074;28;20304;-76
2021/11/19 03:38:13;;;;;;;18.08;15.90;;;;;;;;;;5057930;28;20693;-78
2021/11/19 03:40:41;;;;;;;18.02;15.75;;;;;;;;;;5065078;28;20194;-77
2021/11/19 03:43:14;;;;;;;21.42;17.05;;;;;;;;;;5065155;28;20195;-79
2021/11/19 03:45:42;;;;;;;19.30;16.15;;;;;;;;;;5071729;28;20591;-80
2021/11/19 03:48:09;;;;;;;18.02;15.90;;;;;;;;;;5075366;28;20205;-79
2021/11/19 03:50:40;;;;;;;19.48;16.45;;;;;;;;;;5083401;28;20202;-79
2021/11/19 03:53:09;;;;;;;18.38;15.43;;;;;;;;;;5068180;28;20194;-79
2021/11/19 03:55:38;;;;;;;17.48;15.20;;;;;;;;;;5067580;28;20229;-79
2021/11/19 03:58:06;;;;;;;18.42;14.88;;;;;;;;;;5071532;28;20206;-78
2021/11/19 04:00:34;;;;;;;18.52;14.38;;;;;;;;;;5077620;28;20209;-79
2021/11/19 04:03:02;;;;;;;19.17;16.13;;;;;;;;;;5085378;28;20197;-79
2021/11/19 04:05:30;;;;;;;22.55;15.55;;;;;;;;;;5071063;28;20703;-79
2021/11/19 04:07:57;;;;;;;26.05;17.20;;;;;;;;;;5069226;28;20206;-79
2021/11/19 04:10:26;;;;;;;19.67;14.55;;;;;;;;;;5072716;28;20205;-79
2021/11/19 04:12:54;;;;;;;20.67;16.42;;;;;;;;;;5087016;28;20194;-79
2021/11/19 04:15:23;;;;;;;18.88;15.55;;;;;;;;;;5079018;28;20236;-78
2021/11/19 04:17:50;;;;;;;17.38;14.27;;;;;;;;;;5071557;28;20205;-79
2021/11/19 04:20:19;;;;;;;19.30;14.60;;;;;;;;;;5066151;28;20596;-78
2021/11/19 04:22:46;;;;;;;17.23;14.20;;;;;;;;;;5071619;28;20206;-79
2021/11/19 04:25:14;;;;;;;15.82;14.23;;;;;;;;;;5056404;28;20609;-79
2021/11/19 04:27:43;;;;;;;16.67;14.20;;;;;;;;;;5053280;28;20224;-78
2021/11/19 04:30:12;;;;;;;18.45;16.40;;;;;;;;;;5060209;28;20195;-79
2021/11/19 04:32:39;;;;;;;16.85;14.73;;;;;;;;;;5064838;28;20602;-77
2021/11/19 04:35:07;;;;;;;18.73;14.30;;;;;;;;;;5076907;28;20225;-77
2021/11/19 04:37:34;;;;;;;18.25;15.15;;;;;;;;;;5068196;28;20199;-78
2021/11/19 04:40:01;;;;;;;16.58;13.80;;;;;;;;;;5068883;28;20206;-78
2021/11/19 04:42:28;;;;;;;23.73;15.65;;;;;;;;;;5075245;28;20558;-78
2021/11/19 04:44:57;;;;;;;16.85;13.85;;;;;;;;;;5076782;28;20202;-80
2021/11/19 04:47:24;;;;;;;17.42;14.00;;;;;;;;;;5067425;28;20225;-80
2021/11/19 04:49:51;;;;;;;20.00;15.25;;;;;;;;;;5058495;28;20206;-80
2021/11/19 04:52:18;;;;;;;18.83;15.50;;;;;;;;;;5067311;28;20203;-80
2021/11/19 04:54:46;;;;;;;17.05;13.98;;;;;;;;;;5064530;28;20218;-80
2021/11/19 04:57:13;;;;;;;15.75;14.07;;;;;;;;;;5059897;28;20214;-80
2021/11/19 04:59:40;;;;;;;15.05;13.00;;;;;;;;;;5061491;28;20226;-80
2021/11/19 05:02:09;;;;;;;18.42;15.02;;;;;;;;;;5068259;28;20201;-79
2021/11/19 05:04:36;;;;;;;17.75;14.18;;;;;;;;;;5058672;28;20202;-80
2021/11/19 05:07:04;;;;;;;16.33;13.00;;;;;;;;;;5072892;28;20495;-78
2021/11/19 05:09:32;;;;;;;18.45;13.20;;;;;;;;;;5071623;28;20210;-80
2021/11/19 05:12:01;;;;;;;15.90;13.07;;;;;;;;;;5070654;28;20198;-80
2021/11/19 05:14:28;;;;;;;15.07;13.48;;;;;;;;;;5062286;28;20649;-79
2021/11/19 05:16:55;;;;;;;14.30;12.63;;;;;;;;;;5075550;28;20194;-80
2021/11/19 05:19:24;;;;;;;14.32;12.77;;;;;;;;;;5067566;28;20213;-80
2021/11/19 05:21:51;;;;;;;14.55;12.55;;;;;;;;;;5066035;28;20657;-80
2021/11/19 05:24:19;;;;;;;14.90;13.30;;;;;;;;;;5066563;28;20650;-80
2021/11/19 05:26:47;;;;;;;14.35;12.85;;;;;;;;;;5055460;28;20205;-80
2021/11/19 05:29:15;;;;;;;14.63;13.05;;;;;;;;;;5060573;28;20622;-79
2021/11/19 05:31:43;;;;;;;15.73;12.13;;;;;;;;;;5056234;28;20230;-80
2021/11/19 05:34:11;;;;;;;15.13;13.55;;;;;;;;;;5072946;28;20589;-79
2021/11/19 05:36:40;;;;;;;16.92;13.75;;;;;;;;;;5072985;28;20218;-80
2021/11/19 05:39:07;;;;;;;13.88;12.30;;;;;;;;;;5067741;28;20209;-78
2021/11/19 05:41:35;;;;;;;15.35;13.43;;;;;;;;;;5065776;28;20202;-78
2021/11/19 05:44:02;;;;;;;14.48;10.80;;;;;;;;;;5054761;28;20210;-78
2021/11/19 05:46:30;;;;;;;13.65;10.80;;;;;;;;;;5067657;28;20676;-78
2021/11/19 05:48:59;;;;;;;13.88;11.93;;;;;;;;;;5068122;28;20190;-78
2021/11/19 05:51:28;;;;;;;13.07;11.43;;;;;;;;;;5071626;28;20256;-79
2021/11/19 05:53:57;;;;;;;14.70;12.10;;;;;;;;;;5063095;28;20202;-79
2021/11/19 05:56:25;;;;;;;13.15;11.73;;;;;;;;;;5067220;28;20221;-81
2021/11/19 05:58:52;;;;;;;14.82;13.23;;;;;;;;;;5053091;28;20657;-79
2021/11/19 06:01:20;;;;;;;14.98;11.10;;;;;;;;;;5061481;28;20202;-79
2021/11/19 06:03:48;;;;;;;14.38;11.93;;;;;;;;;;5061166;28;20195;-79
2021/11/19 06:06:16;;;;;;;13.65;11.38;;;;;;;;;;5070189;28;20195;-80
2021/11/19 06:08:44;;;;;;;15.77;12.45;;;;;;;;;;5060787;28;20622;-79
2021/11/19 06:11:13;;;;;;;14.70;11.68;;;;;;;;;;5072103;28;20194;-79
2021/11/19 06:13:43;;;;;;;15.15;13.00;;;;;;;;;;5068415;28;20573;-80
2021/11/19 06:16:13;;;;;;;13.02;11.63;;;;;;;;;;5062225;28;20221;-79
2021/11/19 06:18:43;;;;;;;17.58;13.88;;;;;;;;;;5055075;28;20198;-79
2021/11/19 06:21:12;;;;;;;16.77;12.98;;;;;;;;;;5068347;28;20202;-79
2021/11/19 06:23:40;;;;;;;16.27;12.75;;;;;;;;;;5064720;28;20205;-78
2021/11/19 06:26:08;;;;;;;13.93;11.40;;;;;;;;;;5061668;28;20210;-79
2021/11/19 06:28:41;;;;;;;14.82;12.05;;;;;;;;;;5060333;28;20190;-77
2021/11/19 06:31:08;;;;;;;15.43;11.77;;;;;;;;;;5070196;28;20197;-78
2021/11/19 06:33:35;;;;;;;13.73;11.70;;;;;;;;;;5062260;28;20201;-77
2021/11/19 06:36:02;;;;;;;16.15;12.98;;;;;;;;;;5054461;28;20749;-78
2021/11/19 06:38:29;;;;;;;13.60;12.15;;;;;;;;;;5066613;28;20203;-78
2021/11/19 06:40:56;;;;;;;16.75;14.25;;;;;;;;;;5060279;28;20202;-78
2021/11/19 06:43:26;;;;;;;14.25;12.07;;;;;;;;;;5057700;28;20199;-78
2021/11/19 06:45:54;;;;;;;17.00;12.77;;;;;;;;;;5068904;28;20207;-80
2021/11/19 06:48:21;;;;;;;14.77;11.45;;;;;;;;;;5050906;28;20685;-80
2021/11/19 06:50:48;;;;;;;14.93;13.38;;;;;;;;;;5066857;28;20190;-80
2021/11/19 06:53:17;;;;;;;15.50;11.85;;;;;;;;;;5067626;28;20219;-80
2021/11/19 06:55:44;;;;;;;15.02;12.75;;;;;;;;;;5067009;28;20290;-78
2021/11/19 06:58:12;;;;;;;15.25;12.77;;;;;;;;;;5054015;28;20280;-79
2021/11/19 07:00:41;;;;;;;13.57;12.15;;;;;;;;;;5065506;28;20616;-80
2021/11/19 07:03:10;;;;;;;13.35;11.45;;;;;;;;;;5063292;28;20194;-81
2021/11/19 07:05:37;;;;;;;12.93;11.63;;;;;;;;;;5051570;28;20207;-80
2021/11/19 07:08:04;;;;;;;21.98;11.55;;;;;;;;;;5050784;28;20191;-80
2021/11/19 07:10:32;;;;;;;13.73;12.13;;;;;;;;;;5051751;28;20650;-80
2021/11/19 07:12:59;;;;;;;14.65;12.02;;;;;;;;;;5065018;28;20195;-80
2021/11/19 07:15:27;;;;;;;14.48;11.98;;;;;;;;;;5059801;28;20215;-80
2021/11/19 07:17:54;;;;;;;16.35;13.68;;;;;;;;;;5058868;28;20202;-80
2021/11/19 07:20:24;;;;;;;16.58;13.98;;;;;;;;;;5056686;28;20565;-80
2021/11/19 07:22:51;;;;;;;16.17;11.68;;;;;;;;;;5053893;28;20461;-81
2021/11/19 07:25:20;;;;;;;16.33;12.52;;;;;;;;;;5056721;28;20199;-79
2021/11/19 07:27:48;;;;;;;15.27;13.07;;;;;;;;;;5054122;28;20195;-80
2021/11/19 07:30:17;;;;;;;15.85;13.00;;;;;;;;;;5058199;28;20199;-80
2021/11/19 07:32:44;;;;;;;16.23;12.98;;;;;;;;;;5056793;28;20245;-82
2021/11/19 07:35:11;;;;;;;19.27;13.98;;;;;;;;;;5061126;28;20202;-79
2021/11/19 07:37:40;;;;;;;13.68;11.20;;;;;;;;;;5056567;28;20653;-80
2021/11/19 07:40:08;;;;;;;14.63;12.65;;;;;;;;;;5054757;28;20650;-80
2021/11/19 07:42:35;;;;;;;14.02;12.05;;;;;;;;;;5056197;28;20194;-80
2021/11/19 07:45:03;;;;;;;16.20;13.38;;;;;;;;;;5052786;28;20197;-81
2021/11/19 07:47:30;;;;;;;17.05;13.30;;;;;;;;;;5058275;28;20194;-80
2021/11/19 07:49:57;;;;;;;14.07;12.35;;;;;;;;;;5053363;28;20218;-80
2021/11/19 07:52:24;;;;;;;14.75;12.07;;;;;;;;;;5052007;28;20206;-81
2021/11/19 07:54:52;;;;;;;14.20;11.82;;;;;;;;;;5053576;28;20201;-81
2021/11/19 07:57:19;;;;;;;13.68;10.82;;;;;;;;;;5053208;28;20223;-81
2021/11/19 07:59:46;;;;;;;14.57;12.07;;;;;;;;;;5054873;28;20230;-80
2021/11/19 08:02:13;;;;;;;15.38;11.93;;;;;;;;;;5054002;28;20207;-80
2021/11/19 08:04:41;;;;;;;15.35;12.07;;;;;;;;;;5055129;28;20205;-81
2021/11/19 08:07:09;;;;;;;15.65;12.10;;;;;;;;;;5054733;28;20199;-81
2021/11/19 08:09:37;;;;;;;16.27;13.10;;;;;;;;;;5066242;28;20201;-80
2021/11/19 08:12:05;;;;;;;15.75;13.07;;;;;;;;;;5062862;28;20222;-81
2021/11/19 08:14:35;;;;;;;16.10;12.50;;;;;;;;;;5061598;28;20197;-79
2021/11/19 08:17:04;;;;;;;12.23;10.63;;;;;;;;;;5058912;28;20246;-82
2021/11/19 08:19:33;;;;;;;14.98;12.85;;;;;;;;;;5070221;28;20198;-80
2021/11/19 08:22:01;;;;;;;14.45;12.38;;;;;;;;;;5063660;28;20276;-82
2021/11/19 08:24:29;;;;;;;16.65;12.02;;;;;;;;;;5066155;28;20651;-83
2021/11/19 08:26:58;;;;;;;15.13;12.55;;;;;;;;;;5073797;28;20194;-82
2021/11/19 08:29:27;;;;;;;13.85;12.35;;;;;;;;;;5063709;28;20642;-81
2021/11/19 08:31:56;;;;;;;14.95;11.75;;;;;;;;;;5064596;28;20213;-79
2021/11/19 08:34:23;;;;;;;12.32;10.80;;;;;;;;;;5060598;28;20194;-79
2021/11/19 08:36:50;;;;;;;15.63;10.68;;;;;;;;;;5067451;28;20222;-84
2021/11/19 08:39:19;;;;;;;13.55;10.95;;;;;;;;;;5054690;28;20191;-80
2021/11/19 08:41:46;;;;;;;13.10;11.27;;;;;;;;;;5069971;28;20684;-80
2021/11/19 08:44:13;;;;;;;11.55;10.18;;;;;;;;;;5068657;28;20198;-80
2021/11/19 08:46:43;;;;;;;10.88;9.75;;;;;;;;;;5073856;28;20209;-80
2021/11/19 08:49:12;;;;;;;13.90;10.73;;;;;;;;;;5069619;28;20198;-80
2021/11/19 08:51:39;;;;;;;11.13;10.02;;;;;;;;;;5063313;28;20616;-81
2021/11/19 08:54:08;;;;;;;11.38;9.90;;;;;;;;;;5069644;28;20194;-79
2021/11/19 08:56:36;;;;;;;12.80;10.52;;;;;;;;;;5072428;28;20217;-79
2021/11/19 08:59:04;;;;;;;11.13;9.82;;;;;;;;;;5072566;28;20259;-80
2021/11/19 09:01:31;;;;;;;11.80;10.60;;;;;;;;;;5060850;28;20229;-80
2021/11/19 09:04:00;;;;;;;12.20;9.70;;;;;;;;;;5071350;28;20194;-80
2021/11/19 09:06:27;;;;;;;11.25;10.05;;;;;;;;;;5068445;28;20661;-81
2021/11/19 09:08:54;;;;;;;12.10;10.77;;;;;;;;;;5056463;28;20202;-81
2021/11/19 09:11:24;;;;;;;11.52;10.15;;;;;;;;;;5064253;28;20198;-82
2021/11/19 09:13:52;;;;;;;15.15;11.90;;;;;;;;;;5061571;28;20444;-80
2021/11/19 09:16:22;;;;;;;12.10;10.90;;;;;;;;;;5063142;28;20297;-82
2021/11/19 09:18:53;;;;;;;12.73;11.18;;;;;;;;;;5069338;28;20202;-82
2021/11/19 09:21:25;;;;;;;12.20;10.32;;;;;;;;;;5070109;28;20198;-80
2021/11/19 09:23:55;;;;;;;13.88;10.65;;;;;;;;;;5068491;28;20681;-82
2021/11/19 09:26:24;;;;;;;11.00;9.85;;;;;;;;;;5064783;28;20213;-81
2021/11/19 09:28:53;;;;;;;13.73;10.20;;;;;;;;;;5071834;28;20190;-80
2021/11/19 09:31:21;;;;;;;14.15;10.48;;;;;;;;;;5058558;28;20642;-79
2021/11/19 09:33:49;;;;;;;12.55;11.25;;;;;;;;;;5062638;28;20290;-79
2021/11/19 09:36:17;;;;;;;13.68;11.05;;;;;;;;;;5053764;28;20223;-79
2021/11/19 09:38:46;;;;;;;12.48;10.30;;;;;;;;;;5066638;28;20245;-79
2021/11/19 09:41:25;;;;;;;11.40;10.20;;;;;;;;;;5054380;28;20566;-80
2021/11/19 09:43:58;;;;;;;13.50;11.73;;;;;;;;;;5054930;28;20203;-79
2021/11/19 09:46:42;;;;;;;14.82;10.60;;;;;;;;;;5067036;28;20201;-80
2021/11/19 09:49:13;;;;;;;11.18;9.98;;;;;;;;;;5070092;28;20199;-79
2021/11/19 09:52:15;;;;;;;14.73;12.18;;;;;;;;;;5088563;28;20201;-80
2021/11/19 09:55:11;;;;;;;10.57;9.48;;;;;;;;;;5086237;28;20220;-80
2021/11/19 09:57:48;;;;;;;15.82;12.90;;;;;;;;;;5081589;28;20232;-80
2021/11/19 10:00:19;;;;;;;12.40;11.10;;;;;;;;;;5084663;28;20210;-80
2021/11/19 10:02:52;;;;;;;10.70;9.00;;;;;;;;;;5074824;28;20203;-80
2021/11/19 10:05:25;;;;;;;14.68;10.65;;;;;;;;;;5088386;28;20208;-80
2021/11/19 10:07:58;;;;;;;16.33;12.13;;;;;;;;;;5080831;28;20211;-80
2021/11/19 10:10:39;;;;;;;13.57;11.65;;;;;;;;;;5081789;28;20198;-80
2021/11/19 10:13:10;;;;;;;12.05;10.27;;;;;;;;;;5084955;28;20192;-80
2021/11/19 10:15:42;;;;;;;16.80;12.30;;;;;;;;;;5084272;28;20194;-79
2021/11/19 10:18:13;;;;;;;14.40;12.35;;;;;;;;;;5083250;28;20632;-80
2021/11/19 10:20:59;;;;;;;19.35;14.90;;;;;;;;;;5069623;28;20221;-80
2021/11/19 10:23:28;;;;;;;16.58;12.52;;;;;;;;;;5078032;28;20359;-80
2021/11/19 10:26:01;;;;;;;18.60;15.00;;;;;;;;;;5085769;28;20198;-80
2021/11/19 10:28:34;;;;;;;18.40;16.05;;;;;;;;;;5084038;28;20194;-80
2021/11/19 10:31:01;;;;;;;17.52;14.55;;;;;;;;;;5074222;28;20282;-80
2021/11/19 10:33:31;;;;;;;19.52;14.30;;;;;;;;;;5069970;28;20195;-80
2021/11/19 10:36:06;;;;;;;18.00;14.27;;;;;;;;;;5076684;28;20191;-80
2021/11/19 10:38:55;;;;;;;20.95;15.30;;;;;;;;;;5067847;28;20609;-80
2021/11/19 10:41:43;;;;;;;18.83;15.25;;;;;;;;;;5073685;28;21024;-80
2021/11/19 10:44:31;;;;;;;20.42;16.95;;;;;;;;;;5069510;28;20228;-79
2021/11/19 10:47:02;;;;;;;20.23;15.93;;;;;;;;;;5074996;28;20194;-80
2021/11/19 10:49:42;;;;;;;22.23;16.15;;;;;;;;;;5073751;28;20220;-80
2021/11/19 10:52:24;;;;;;;23.20;18.48;;;;;;;;;;5073791;28;20292;-79
2021/11/19 10:55:13;;;;;;;22.45;16.80;;;;;;;;;;5067821;28;20202;-79
2021/11/19 10:58:04;;;;;;;22.17;17.38;;;;;;;;;;5078566;28;20998;-79
2021/11/19 11:00:39;;;;;;;21.40;17.45;;;;;;;;;;5047791;28;20613;-78
2021/11/19 11:03:10;;;;;;;22.52;16.85;;;;;;;;;;5075279;28;20229;-78
2021/11/19 11:05:38;;;;;;;25.02;18.52;;;;;;;;;;5073877;28;20301;-78
2021/11/19 11:08:08;;;;;;;21.35;15.70;;;;;;;;;;5057828;28;20206;-78
2021/11/19 11:10:38;;;;;;;26.63;17.00;;;;;;;;;;5059669;28;20276;-79
2021/11/19 11:13:21;;;;;;;25.23;17.95;;;;;;;;;;5056711;28;20572;-79
2021/11/19 11:15:51;;;;;;;21.25;17.08;;;;;;;;;;5054561;28;20210;-79
2021/11/19 11:18:21;;;;;;;29.80;20.38;;;;;;;;;;5065614;28;20214;-78
2021/11/19 11:21:18;;;;;;;24.63;20.75;;;;;;;;;;5054262;28;20231;-79
2021/11/19 11:24:00;;;;;;;26.27;19.52;;;;;;;;;;5001978;28;20226;-78
2021/11/19 11:26:29;;;;;;;27.38;19.90;;;;;;;;;;5038548;28;20201;-78
2021/11/19 11:28:57;;;;;;;25.50;18.77;;;;;;;;;;5058273;28;20203;-78
2021/11/19 11:31:38;;;;;;;29.35;21.00;;;;;;;;;;5054857;28;20657;-78
2021/11/19 11:34:15;;;;;;;27.27;18.45;;;;;;;;;;5067878;28;20238;-78
2021/11/19 11:36:44;;;;;;;30.05;20.52;;;;;;;;;;5075440;28;20673;-78
2021/11/19 11:39:13;;;;;;;29.92;23.35;;;;;;;;;;5056519;28;20665;-79
2021/11/19 11:41:54;;;;;;;31.15;21.17;;;;;;;;;;5063604;28;20198;-78
2021/11/19 11:44:22;;;;;;;30.77;21.98;;;;;;;;;;5070245;28;20197;-79
2021/11/19 11:47:00;;;;;;;31.67;22.70;;;;;;;;;;5073725;28;20194;-79
2021/11/19 11:49:34;;;;;;;26.38;21.52;;;;;;;;;;5076251;28;20193;-78
2021/11/19 11:52:11;;;;;;;25.77;20.70;;;;;;;;;;5069603;28;20582;-77
2021/11/19 11:54:40;;;;;;;29.88;21.35;;;;;;;;;;5054619;28;20193;-78
2021/11/19 11:57:20;;;;;;;26.05;21.08;;;;;;;;;;5063160;28;20317;-78
2021/11/19 11:59:58;;;;;;;27.75;21.40;;;;;;;;;;5076297;28;20252;-78
2021/11/19 12:02:30;;;;;;;25.60;19.45;;;;;;;;;;5056703;28;20195;-78
2021/11/19 12:05:03;;;;;;;23.67;20.15;;;;;;;;;;5067224;28;20194;-78
2021/11/19 12:07:36;;;;;;;24.73;19.38;;;;;;;;;;5077349;28;20198;-78
2021/11/19 12:10:06;;;;;;;29.48;21.73;;;;;;;;;;5063408;28;20199;-78
2021/11/19 12:12:36;;;;;;;26.13;21.38;;;;;;;;;;5066794;28;20209;-78
2021/11/19 12:15:06;;;;;;;33.10;23.17;;;;;;;;;;5060893;28;20201;-78
2021/11/19 12:17:38;;;;;;;32.05;22.85;;;;;;;;;;5064558;28;20217;-78
2021/11/19 12:20:09;;;;;;;28.63;21.55;;;;;;;;;;5070445;28;20574;-78
2021/11/19 12:22:39;;;;;;;26.27;20.90;;;;;;;;;;5073375;28;20331;-77
2021/11/19 12:25:20;;;;;;;28.83;21.92;;;;;;;;;;5065300;28;20198;-78
2021/11/19 12:27:51;;;;;;;27.83;22.20;;;;;;;;;;5070604;28;20661;-77
2021/11/19 12:30:26;;;;;;;25.05;19.70;;;;;;;;;;5070045;28;20191;-78
2021/11/19 12:32:58;;;;;;;29.55;22.38;;;;;;;;;;5059532;28;20194;-77
2021/11/19 12:35:27;;;;;;;30.45;23.25;;;;;;;;;;5052853;28;20588;-78
2021/11/19 12:37:59;;;;;;;29.77;23.38;;;;;;;;;;5063143;28;20222;-78
2021/11/19 12:40:30;;;;;;;28.08;20.45;;;;;;;;;;5070266;28;20210;-78
2021/11/19 12:42:59;;;;;;;32.03;23.92;;;;;;;;;;5061617;28;20282;-78
2021/11/19 12:45:28;;;;;;;27.67;22.45;;;;;;;;;;5067332;28;20203;-78
2021/11/19 12:48:23;;;;;;;25.52;21.02;;;;;;;;;;5058996;28;20194;-78
2021/11/19 12:50:55;;;;;;;33.00;23.23;;;;;;;;;;5061368;28;20218;-79
2021/11/19 12:53:30;;;;;;;31.25;21.98;;;;;;;;;;5060383;28;20654;-76
2021/11/19 12:56:07;;;;;;;28.35;22.63;;;;;;;;;;5068281;28;20193;-78
2021/11/19 12:58:35;;;;;;;27.98;22.50;;;;;;;;;;5076584;28;20228;-75
2021/11/19 13:01:20;;;;;;;27.98;23.25;;;;;;;;;;5066653;28;20218;-79
2021/11/19 13:04:04;;;;;;;31.38;20.80;;;;;;;;;;5067796;28;20198;-78
2021/11/19 13:06:39;;;;;;;25.90;20.40;;;;;;;;;;5084100;28;20194;-78
2021/11/19 13:09:23;;;;;;;27.00;21.83;;;;;;;;;;5073175;28;20202;-75
2021/11/19 13:11:59;;;;;;;28.95;22.80;;;;;;;;;;5083118;28;20208;-78
2021/11/19 13:14:44;;;;;;;28.23;21.35;;;;;;;;;;5077750;28;20661;-78
2021/11/19 13:17:31;;;;;;;28.90;22.45;;;;;;;;;;5088432;28;20214;-79
2021/11/19 13:20:01;;;;;;;27.88;21.02;;;;;;;;;;5072890;28;20595;-78
2021/11/19 13:22:46;;;;;;;28.25;22.10;;;;;;;;;;5073838;28;20190;-78
2021/11/19 13:25:28;;;;;;;26.27;19.88;;;;;;;;;;5081346;28;20202;-78
2021/11/19 13:27:57;;;;;;;27.00;20.90;;;;;;;;;;5088403;28;20205;-78
2021/11/19 13:30:41;;;;;;;27.02;22.15;;;;;;;;;;5084468;28;20205;-78
2021/11/19 13:33:18;;;;;;;29.50;24.30;;;;;;;;;;5071432;28;20209;-78
2021/11/19 13:36:06;;;;;;;26.77;20.17;;;;;;;;;;5069995;28;20258;-78
2021/11/19 13:38:52;;;;;;;33.58;23.13;;;;;;;;;;5063350;28;20218;-78
2021/11/19 13:41:26;;;;;;;26.25;22.30;;;;;;;;;;5082037;28;20669;-78
2021/11/19 13:43:53;;;;;;;30.88;23.60;;;;;;;;;;5074242;28;20199;-78
2021/11/19 13:46:47;;;;;;;33.63;22.02;;;;;;;;;;5074023;28;20673;-78
2021/11/19 13:49:25;;;;;;;26.80;22.13;;;;;;;;;;5074520;28;20221;-78
2021/11/19 13:52:01;;;;;;;26.35;21.60;;;;;;;;;;5082549;28;20195;-78
2021/11/19 13:54:32;;;;;;;23.40;19.90;;;;;;;;;;5080530;28;20214;-78
2021/11/19 13:57:06;;;;;;;27.95;20.98;;;;;;;;;;5088063;28;20209;-78
2021/11/19 13:59:40;;;;;;;27.20;21.13;;;;;;;;;;5079273;28;20213;-77
2021/11/19 14:02:09;;;;;;;25.05;20.75;;;;;;;;;;5072178;28;20202;-78
2021/11/19 14:04:45;;;;;;;28.50;22.25;;;;;;;;;;5083074;28;20210;-78
2021/11/19 14:07:16;;;;;;;32.45;25.55;;;;;;;;;;5094154;28;20198;-78
2021/11/19 14:09:45;;;;;;;27.77;21.17;;;;;;;;;;5073441;28;20209;-77
2021/11/19 14:12:21;;;;;;;26.33;20.27;;;;;;;;;;5073686;28;20226;-78
2021/11/19 14:14:49;;;;;;;25.17;20.63;;;;;;;;;;5084713;28;20624;-78
2021/11/19 14:17:28;;;;;;;27.33;18.50;;;;;;;;;;5070858;28;20229;-78
2021/11/19 14:23:01;;;;;;;23.92;19.77;;;;;;;;;;5061306;28;20203;-78
2021/11/19 14:25:29;;;;;;;24.83;20.67;;;;;;;;;;5062516;28;20193;-77
2021/11/19 14:28:00;;;;;;;23.48;20.83;;;;;;;;;;5076499;28;20426;-78
2021/11/19 14:30:29;;;;;;;24.48;19.77;;;;;;;;;;5067727;28;20233;-79
2021/11/19 14:33:09;;;;;;;22.45;19.10;;;;;;;;;;5085330;28;20741;-78
2021/11/19 14:35:42;;;;;;;24.05;20.02;;;;;;;;;;5073493;28;20208;-78
2021/11/19 14:38:11;;;;;;;22.17;18.30;;;;;;;;;;5075606;28;20749;-78